createdAt,value
2019-02-28T00:01:11.733Z,77.20
2019-02-28T00:03:40.386Z,77.30
2019-02-28T00:06:12.673Z,77.40
2019-02-28T00:08:40.544Z,77.50
2019-02-28T00:11:09.743Z,77.30
2019-02-28T00:13:38.915Z,78.30
2019-02-28T00:16:08.151Z,78.50
2019-02-28T00:18:37.403Z,78.60
2019-02-28T00:21:07.141Z,79.60
2019-02-28T00:23:36.403Z,78.60
2019-02-28T00:26:05.619Z,79.30
2019-02-28T00:28:34.883Z,79.50
2019-02-28T00:31:04.209Z,79.50
2019-02-28T00:33:33.681Z,80.30
2019-02-28T00:36:02.919Z,80.30
2019-02-28T00:38:32.152Z,80.60
2019-02-28T00:41:01.432Z,80.50
2019-02-28T00:43:30.719Z,80.70
2019-02-28T00:45:59.979Z,81.10
2019-02-28T00:48:29.242Z,80.80
2019-02-28T00:50:59.254Z,81.20
2019-02-28T00:53:28.620Z,81.20
2019-02-28T00:55:57.787Z,81.70
2019-02-28T00:58:28.997Z,81.90
2019-02-28T01:00:57.916Z,82.60
2019-02-28T01:03:27.626Z,82.70
2019-02-28T01:05:56.919Z,83.00
2019-02-28T01:08:26.243Z,83.00
2019-02-28T01:10:55.439Z,83.60
2019-02-28T01:13:27.318Z,84.20
2019-02-28T01:15:55.660Z,85.30
2019-02-28T01:18:24.951Z,85.00
2019-02-28T01:20:54.232Z,84.90
2019-02-28T01:23:23.459Z,84.80
2019-02-28T01:25:52.627Z,85.50
2019-02-28T01:28:26.958Z,85.90
2019-02-28T01:30:54.888Z,85.60
2019-02-28T01:33:25.014Z,86.00
2019-02-28T01:35:54.963Z,86.00
2019-02-28T01:38:25.223Z,86.00
2019-02-28T01:40:54.584Z,86.40
2019-02-28T01:43:28.373Z,86.40
2019-02-28T01:45:54.794Z,87.30
2019-02-28T01:48:24.100Z,87.60
2019-02-28T01:50:53.355Z,87.70
2019-02-28T01:53:22.626Z,88.00
2019-02-28T01:55:51.868Z,88.00
2019-02-28T01:58:21.518Z,88.10
2019-02-28T02:00:50.839Z,88.70
2019-02-28T02:03:20.015Z,89.10
2019-02-28T02:05:51.683Z,89.60
2019-02-28T02:08:20.168Z,89.80
2019-02-28T02:10:52.203Z,89.90
2019-02-28T02:13:20.480Z,90.00
2019-02-28T02:15:51.243Z,89.60
2019-02-28T02:18:20.744Z,90.10
2019-02-28T02:20:49.910Z,90.20
2019-02-28T02:23:19.159Z,90.70
2019-02-28T02:25:48.312Z,90.60
2019-02-28T02:28:17.605Z,90.90
2019-02-28T02:30:50.484Z,91.00
2019-02-28T02:33:18.292Z,91.10
2019-02-28T02:35:47.533Z,91.50
2019-02-28T02:38:16.792Z,91.50
2019-02-28T02:40:46.133Z,91.60
2019-02-28T02:43:15.504Z,91.70
2019-02-28T02:45:44.799Z,92.00
2019-02-28T02:48:14.054Z,92.30
2019-02-28T02:50:43.220Z,92.40
2019-02-28T02:53:12.413Z,92.50
2019-02-28T02:55:41.723Z,92.90
2019-02-28T02:58:10.910Z,93.20
2019-02-28T03:00:40.154Z,92.90
2019-02-28T03:03:09.527Z,92.80
2019-02-28T03:05:38.821Z,93.70
2019-02-28T03:08:08.099Z,93.70
2019-02-28T03:10:37.338Z,94.00
2019-02-28T03:13:06.650Z,94.30
2019-02-28T03:15:36.044Z,94.50
2019-02-28T03:18:05.213Z,94.40
2019-02-28T03:20:34.479Z,94.60
2019-02-28T03:23:03.640Z,94.80
2019-02-28T03:25:32.840Z,94.90
2019-02-28T03:28:02.211Z,95.40
2019-02-28T03:30:33.273Z,95.70
2019-02-28T03:33:02.498Z,95.50
2019-02-28T03:35:40.104Z,96.20
2019-02-28T03:38:10.530Z,96.00
2019-02-28T03:40:39.811Z,96.80
2019-02-28T03:43:06.678Z,96.90
2019-02-28T03:45:35.674Z,96.90
2019-02-28T03:48:05.061Z,97.20
2019-02-28T03:50:34.346Z,97.50
2019-02-28T03:53:03.551Z,98.20
2019-02-28T03:55:39.855Z,98.40
2019-02-28T03:58:05.498Z,98.10
2019-02-28T04:00:34.957Z,98.80
2019-02-28T04:03:04.186Z,98.70
2019-02-28T04:05:33.510Z,99.10
2019-02-28T04:08:02.845Z,99.70
2019-02-28T04:10:32.202Z,99.90
2019-02-28T04:13:01.365Z,99.90
2019-02-28T04:15:30.622Z,99.90
2019-02-28T04:18:07.117Z,99.90
2019-02-28T04:20:35.900Z,99.90
2019-02-28T04:23:01.774Z,99.90
2019-02-28T04:25:31.020Z,99.90
2019-02-28T04:28:00.226Z,99.90
2019-02-28T04:30:33.228Z,99.90
2019-02-28T04:33:02.637Z,99.90
2019-02-28T04:35:32.012Z,99.90
2019-02-28T04:38:01.259Z,99.90
2019-02-28T04:40:30.490Z,99.90
2019-02-28T04:42:59.719Z,99.90
2019-02-28T04:45:28.946Z,99.90
2019-02-28T04:47:58.177Z,99.90
2019-02-28T04:50:31.203Z,99.90
2019-02-28T04:52:58.383Z,99.90
2019-02-28T04:55:27.678Z,99.90
2019-02-28T04:57:56.959Z,99.90
2019-02-28T05:00:26.193Z,99.90
2019-02-28T05:02:55.373Z,99.90
2019-02-28T05:05:24.650Z,99.90
2019-02-28T05:07:53.855Z,99.90
2019-02-28T05:10:23.089Z,99.90
2019-02-28T05:12:52.369Z,99.90
2019-02-28T05:15:21.596Z,99.90
2019-02-28T05:17:53.164Z,99.90
2019-02-28T05:20:21.663Z,99.90
2019-02-28T05:22:50.863Z,99.90
2019-02-28T05:25:20.175Z,99.90
2019-02-28T05:27:49.431Z,99.90
2019-02-28T05:30:19.836Z,99.90
2019-02-28T05:32:49.227Z,99.90
2019-02-28T05:35:18.383Z,99.90
2019-02-28T05:37:48.573Z,99.90
2019-02-28T05:40:17.890Z,99.90
2019-02-28T05:42:47.131Z,99.90
2019-02-28T05:45:16.411Z,99.90
2019-02-28T05:47:47.217Z,99.90
2019-02-28T05:50:17.435Z,99.90
2019-02-28T05:52:46.957Z,99.90
2019-02-28T05:55:16.269Z,99.90
2019-02-28T05:57:45.455Z,99.90
2019-02-28T06:00:16.248Z,99.90
2019-02-28T06:02:45.598Z,99.90
2019-02-28T06:05:14.891Z,99.90
2019-02-28T06:07:44.100Z,99.90
2019-02-28T06:10:13.393Z,99.90
2019-02-28T06:12:43.882Z,99.90
2019-02-28T06:15:13.498Z,99.90
2019-02-28T06:17:42.826Z,99.90
2019-02-28T06:20:16.120Z,99.90
2019-02-28T06:22:43.279Z,99.90
2019-02-28T06:25:12.678Z,99.90
2019-02-28T06:27:45.730Z,99.90
2019-02-28T06:30:13.071Z,99.90
2019-02-28T06:32:42.229Z,99.90
2019-02-28T06:35:16.086Z,99.90
2019-02-28T06:37:42.495Z,99.90
2019-02-28T06:40:13.333Z,99.90
2019-02-28T06:42:43.453Z,99.90
2019-02-28T06:45:14.763Z,99.90
2019-02-28T06:47:47.981Z,99.90
2019-02-28T06:50:15.113Z,99.90
2019-02-28T06:52:44.415Z,99.90
2019-02-28T06:55:17.435Z,99.90
2019-02-28T06:57:46.591Z,99.90
2019-02-28T07:00:15.987Z,99.90
2019-02-28T07:02:45.145Z,99.90
2019-02-28T07:05:14.683Z,99.90
2019-02-28T07:07:45.769Z,99.90
2019-02-28T07:10:14.901Z,99.90
2019-02-28T07:12:44.280Z,99.90
2019-02-28T07:15:13.859Z,99.90
2019-02-28T07:17:46.545Z,99.90
2019-02-28T07:20:14.706Z,99.90
2019-02-28T07:22:43.866Z,99.90
2019-02-28T07:25:13.891Z,99.90
2019-02-28T07:27:43.324Z,99.90
2019-02-28T07:30:18.643Z,99.90
2019-02-28T07:32:45.417Z,99.90
2019-02-28T07:35:14.685Z,99.90
2019-02-28T07:37:43.984Z,99.90
2019-02-28T07:40:16.358Z,99.90
2019-02-28T07:42:44.462Z,99.90
2019-02-28T07:45:13.863Z,99.90
2019-02-28T07:47:43.093Z,99.90
2019-02-28T07:50:12.507Z,99.90
2019-02-28T07:52:41.966Z,99.90
2019-02-28T07:55:11.876Z,99.90
2019-02-28T07:57:41.115Z,99.90
2019-02-28T08:00:18.317Z,99.90
2019-02-28T08:02:44.984Z,99.90
2019-02-28T08:05:14.669Z,99.90
2019-02-28T08:07:50.552Z,99.90
2019-02-28T08:10:16.759Z,99.90
2019-02-28T08:12:46.101Z,99.90
2019-02-28T08:15:24.499Z,99.90
2019-02-28T08:17:53.673Z,99.90
2019-02-28T08:20:23.057Z,99.90
2019-02-28T08:22:52.448Z,99.90
2019-02-28T08:25:21.728Z,99.90
2019-02-28T08:27:50.976Z,99.90
2019-02-28T08:30:21.542Z,99.90
2019-02-28T08:32:50.783Z,99.90
2019-02-28T08:35:19.949Z,99.90
2019-02-28T08:37:55.640Z,99.90
2019-02-28T08:40:20.712Z,99.90
2019-02-28T08:42:50.099Z,99.90
2019-02-28T08:45:19.395Z,99.90
2019-02-28T08:47:48.822Z,99.90
2019-02-28T08:50:21.495Z,99.90
2019-02-28T08:52:51.432Z,99.90
2019-02-28T08:55:28.169Z,99.90
2019-02-28T08:57:54.730Z,99.90
2019-02-28T09:00:22.678Z,99.90
2019-02-28T09:02:52.886Z,99.90
2019-02-28T09:05:26.069Z,99.90
2019-02-28T09:07:53.903Z,99.90
2019-02-28T09:10:23.335Z,99.90
2019-02-28T09:12:52.524Z,99.90
2019-02-28T09:15:22.065Z,99.90
2019-02-28T09:17:51.387Z,99.90
2019-02-28T09:20:20.628Z,99.90
2019-02-28T09:22:49.966Z,99.90
2019-02-28T09:25:21.876Z,99.90
2019-02-28T09:27:50.243Z,99.90
2019-02-28T09:30:22.322Z,99.90
2019-02-28T09:32:51.592Z,99.90
2019-02-28T09:35:20.846Z,99.90
2019-02-28T09:37:50.558Z,99.90
2019-02-28T09:40:19.793Z,99.90
2019-02-28T09:42:51.206Z,99.90
2019-02-28T09:45:20.449Z,99.90
2019-02-28T09:47:49.636Z,99.90
2019-02-28T09:50:22.600Z,99.90
2019-02-28T09:52:50.547Z,99.90
2019-02-28T09:55:19.796Z,99.90
2019-02-28T09:57:53.706Z,99.90
2019-02-28T10:00:20.227Z,99.90
2019-02-28T10:02:49.612Z,99.90
2019-02-28T10:05:18.770Z,99.90
2019-02-28T10:07:48.072Z,99.90
2019-02-28T10:10:21.088Z,99.90
2019-02-28T10:12:50.120Z,99.90
2019-02-28T10:15:20.302Z,99.90
2019-02-28T10:17:49.464Z,99.90
2019-02-28T10:20:26.275Z,99.90
2019-02-28T10:22:51.807Z,99.90
2019-02-28T10:25:21.053Z,99.90
2019-02-28T10:27:50.287Z,99.90
2019-02-28T10:30:30.756Z,99.90
2019-02-28T10:32:51.772Z,99.90
2019-02-28T10:35:21.089Z,99.90
2019-02-28T10:37:50.250Z,99.90
2019-02-28T10:40:21.474Z,99.90
2019-02-28T10:42:50.633Z,99.90
2019-02-28T10:45:20.216Z,99.90
2019-02-28T10:47:49.463Z,99.90
2019-02-28T10:50:20.440Z,99.90
2019-02-28T10:52:49.689Z,99.90
2019-02-28T10:55:19.367Z,99.90
2019-02-28T10:57:50.324Z,99.90
2019-02-28T11:00:29.507Z,99.90
2019-02-28T11:02:58.248Z,99.90
2019-02-28T11:05:31.909Z,99.90
2019-02-28T11:08:02.073Z,99.90
2019-02-28T11:10:35.513Z,99.90
2019-02-28T11:13:04.689Z,99.90
2019-02-28T11:15:34.047Z,99.90
2019-02-28T11:18:08.497Z,99.90
2019-02-28T11:20:34.479Z,99.90
2019-02-28T11:23:04.467Z,99.90
2019-02-28T11:25:35.546Z,99.90
2019-02-28T11:28:04.883Z,99.90
2019-02-28T11:30:36.083Z,99.90
2019-02-28T11:33:05.947Z,99.90
2019-02-28T11:35:35.211Z,99.90
2019-02-28T11:38:05.072Z,99.90
2019-02-28T11:40:34.696Z,99.90
2019-02-28T11:43:04.684Z,99.90
2019-02-28T11:45:34.862Z,99.90
2019-02-28T11:48:04.851Z,99.90
2019-02-28T11:50:34.079Z,99.90
2019-02-28T11:53:05.757Z,99.90
2019-02-28T11:55:34.309Z,99.90
2019-02-28T11:58:03.613Z,99.90
2019-02-28T12:00:35.906Z,99.90
2019-02-28T12:03:05.578Z,99.90
2019-02-28T12:05:35.147Z,99.90
2019-02-28T12:08:09.241Z,99.90
2019-02-28T12:10:35.331Z,99.90
2019-02-28T12:13:04.663Z,99.90
2019-02-28T12:15:33.888Z,99.90
2019-02-28T12:18:04.550Z,99.90
2019-02-28T12:20:33.966Z,99.90
2019-02-28T12:23:03.231Z,99.90
2019-02-28T12:25:32.467Z,99.90
2019-02-28T12:28:02.717Z,99.90
2019-02-28T12:30:32.932Z,99.90
2019-02-28T12:33:02.551Z,99.90
2019-02-28T12:35:37.433Z,99.90
2019-02-28T12:38:02.937Z,99.90
2019-02-28T12:40:33.269Z,99.90
2019-02-28T12:43:05.428Z,99.90
2019-02-28T12:45:35.149Z,99.90
2019-02-28T12:48:04.724Z,99.40
2019-02-28T12:50:33.960Z,99.90
2019-02-28T12:53:03.224Z,99.70
2019-02-28T12:55:35.486Z,98.90
2019-02-28T12:58:03.582Z,97.70
2019-02-28T13:00:35.094Z,98.50
2019-02-28T13:03:04.481Z,98.20
2019-02-28T13:05:33.821Z,98.40
2019-02-28T13:08:05.773Z,98.10
2019-02-28T13:10:34.166Z,97.60
2019-02-28T13:13:06.733Z,97.20
2019-02-28T13:15:34.493Z,97.10
2019-02-28T13:18:07.107Z,96.90
2019-02-28T13:20:36.422Z,95.30
2019-02-28T13:23:05.960Z,95.70
2019-02-28T13:25:35.196Z,95.20
2019-02-28T13:28:04.943Z,94.30
2019-02-28T13:30:34.201Z,94.20
2019-02-28T13:33:03.520Z,93.30
2019-02-28T13:35:32.805Z,93.40
2019-02-28T13:38:02.085Z,93.00
2019-02-28T13:40:31.455Z,92.10
2019-02-28T13:43:01.857Z,91.80
2019-02-28T13:45:31.404Z,92.50
2019-02-28T13:48:00.698Z,92.70
2019-02-28T13:50:32.367Z,91.20
2019-02-28T13:53:03.450Z,91.00
2019-02-28T13:55:31.879Z,90.20
2019-02-28T13:58:01.196Z,90.00
2019-02-28T14:00:30.733Z,88.00
2019-02-28T14:03:01.870Z,87.70
2019-02-28T14:05:34.802Z,87.70
2019-02-28T14:08:02.159Z,88.80
2019-02-28T14:10:33.474Z,86.20
2019-02-28T14:13:02.487Z,89.10
2019-02-28T14:15:34.619Z,89.70
2019-02-28T14:18:03.914Z,90.30
2019-02-28T14:20:33.175Z,87.50
2019-02-28T14:23:02.411Z,86.60
2019-02-28T14:25:31.697Z,85.80
2019-02-28T14:28:01.469Z,86.60
2019-02-28T14:30:30.907Z,86.80
2019-02-28T14:33:00.163Z,85.70
2019-02-28T14:35:33.887Z,85.40
2019-02-28T14:38:00.392Z,86.20
2019-02-28T14:40:29.789Z,86.10
2019-02-28T14:42:59.002Z,85.50
2019-02-28T14:45:28.348Z,87.60
2019-02-28T14:47:57.556Z,86.10
2019-02-28T14:50:26.885Z,86.20
2019-02-28T14:52:56.748Z,87.10
2019-02-28T14:55:26.044Z,88.50
2019-02-28T14:57:55.351Z,88.30
2019-02-28T15:00:28.438Z,88.30
2019-02-28T15:02:59.444Z,88.60
2019-02-28T15:05:29.347Z,89.10
2019-02-28T15:07:59.120Z,88.70
2019-02-28T15:10:29.170Z,90.10
2019-02-28T15:12:59.658Z,90.40
2019-02-28T15:15:29.026Z,91.00
2019-02-28T15:17:58.254Z,90.80
2019-02-28T15:20:31.806Z,91.60
2019-02-28T15:22:59.628Z,92.00
2019-02-28T15:25:29.176Z,92.30
2019-02-28T15:27:58.407Z,92.70
2019-02-28T15:30:30.531Z,92.90
2019-02-28T15:33:00.364Z,93.00
2019-02-28T15:35:29.623Z,93.40
2019-02-28T15:37:58.851Z,93.90
2019-02-28T15:40:30.230Z,93.60
2019-02-28T15:42:59.472Z,93.40
2019-02-28T15:45:28.785Z,94.20
2019-02-28T15:47:58.980Z,94.30
2019-02-28T15:50:29.202Z,94.70
2019-02-28T15:52:59.071Z,95.00
2019-02-28T15:55:28.490Z,94.80
2019-02-28T15:57:57.750Z,94.90
2019-02-28T16:00:28.698Z,95.00
2019-02-28T16:02:58.256Z,95.20
2019-02-28T16:05:27.504Z,95.40
2019-02-28T16:07:57.486Z,95.30
2019-02-28T16:10:28.493Z,95.30
2019-02-28T16:12:59.759Z,95.40
2019-02-28T16:15:29.467Z,95.40
2019-02-28T16:17:58.737Z,95.80
2019-02-28T16:20:28.735Z,95.90
2019-02-28T16:22:58.883Z,96.00
2019-02-28T16:25:30.138Z,96.80
2019-02-28T16:27:59.471Z,97.60
2019-02-28T16:30:31.944Z,98.40
2019-02-28T16:33:00.004Z,99.00
2019-02-28T16:35:29.243Z,99.50
2019-02-28T16:37:58.446Z,99.90
2019-02-28T16:40:27.719Z,99.90
2019-02-28T16:42:56.980Z,99.90
2019-02-28T16:45:29.400Z,99.90
2019-02-28T16:47:59.591Z,99.90
2019-02-28T16:50:29.824Z,99.90
2019-02-28T16:52:59.016Z,99.90
2019-02-28T16:55:31.010Z,99.90
2019-02-28T16:57:59.484Z,99.90
2019-02-28T17:00:29.104Z,99.90
2019-02-28T17:02:58.295Z,99.90
2019-02-28T17:05:28.354Z,99.90
2019-02-28T17:07:57.811Z,99.90
2019-02-28T17:10:31.919Z,99.90
2019-02-28T17:13:29.431Z,99.90
2019-02-28T17:16:23.566Z,99.90
2019-02-28T17:18:53.590Z,99.90
2019-02-28T17:21:23.901Z,99.90
2019-02-28T17:23:53.225Z,99.90
2019-02-28T17:26:42.076Z,99.90
2019-02-28T17:29:21.634Z,99.90
2019-02-28T17:31:52.110Z,99.90
2019-02-28T17:34:24.414Z,99.90
2019-02-28T17:36:52.588Z,99.90
2019-02-28T17:39:21.780Z,99.90
2019-02-28T17:41:51.156Z,99.90
2019-02-28T17:44:44.161Z,99.90
2019-02-28T17:47:56.093Z,99.90
2019-02-28T17:50:33.235Z,99.90
2019-02-28T17:54:01.978Z,99.90
2019-02-28T17:56:46.935Z,99.90
2019-02-28T17:59:43.890Z,99.90
2019-02-28T18:02:45.941Z,99.90
2019-02-28T18:05:56.448Z,99.90
2019-02-28T18:08:41.160Z,99.90
2019-02-28T18:11:57.216Z,99.90
2019-02-28T18:15:08.863Z,99.90
2019-02-28T18:18:10.896Z,99.90
2019-02-28T18:21:37.524Z,99.90
2019-02-28T18:24:50.275Z,99.90
2019-02-28T18:28:09.619Z,99.90
2019-02-28T18:31:07.910Z,99.90
2019-02-28T18:33:38.093Z,99.90
2019-02-28T18:36:13.244Z,99.90
2019-02-28T18:38:42.419Z,99.90
2019-02-28T18:41:11.608Z,99.90
2019-02-28T18:43:40.778Z,99.90
2019-02-28T18:46:10.058Z,99.90
2019-02-28T18:48:39.355Z,99.90
2019-02-28T18:51:08.610Z,99.90
2019-02-28T18:53:37.772Z,99.90
2019-02-28T18:56:07.099Z,99.90
2019-02-28T18:58:36.337Z,99.90
2019-02-28T19:01:05.946Z,99.90
2019-02-28T19:03:35.152Z,99.90
2019-02-28T19:06:04.484Z,99.90
2019-02-28T19:08:33.667Z,99.90
2019-02-28T19:11:02.920Z,99.90
2019-02-28T19:13:32.215Z,99.90
2019-02-28T19:16:01.399Z,99.90
2019-02-28T19:18:30.660Z,99.90
2019-02-28T19:20:59.895Z,99.90
2019-02-28T19:23:29.221Z,99.90
2019-02-28T19:26:00.812Z,99.90
2019-02-28T19:28:30.072Z,99.90
2019-02-28T19:30:59.259Z,99.90
2019-02-28T19:33:28.510Z,99.90
2019-02-28T19:35:57.808Z,99.90
2019-02-28T19:38:27.067Z,99.90
2019-02-28T19:40:56.231Z,99.90
2019-02-28T19:43:25.565Z,99.90
2019-02-28T19:45:55.347Z,99.90
2019-02-28T19:48:24.608Z,99.90
2019-02-28T19:50:53.759Z,99.90
2019-02-28T19:53:23.007Z,99.90
2019-02-28T19:55:52.319Z,99.90
2019-02-28T19:58:21.575Z,99.90
2019-02-28T20:00:52.025Z,99.90
2019-02-28T20:03:21.375Z,99.90
2019-02-28T20:05:50.683Z,99.90
2019-02-28T20:08:19.936Z,99.90
2019-02-28T20:10:49.096Z,99.90
2019-02-28T20:13:18.356Z,99.90
2019-02-28T20:15:47.616Z,99.90
2019-02-28T20:18:16.882Z,99.90
2019-02-28T20:20:46.117Z,99.90
2019-02-28T20:23:15.347Z,99.90
2019-02-28T20:25:44.603Z,99.90
2019-02-28T20:28:13.956Z,99.90
2019-02-28T20:30:43.206Z,99.90
2019-02-28T20:33:12.500Z,99.90
2019-02-28T20:35:41.691Z,99.90
2019-02-28T20:38:10.915Z,99.90
2019-02-28T20:40:40.170Z,99.90
2019-02-28T20:43:09.399Z,99.90
2019-02-28T20:45:38.723Z,99.90
2019-02-28T20:48:07.876Z,99.90
2019-02-28T20:50:39.432Z,99.90
2019-02-28T20:53:08.622Z,99.90
2019-02-28T20:55:37.911Z,99.90
2019-02-28T20:58:07.140Z,99.90
2019-02-28T21:00:36.329Z,99.90
2019-02-28T21:03:05.683Z,99.90
2019-02-28T21:05:34.939Z,99.90
2019-02-28T21:08:04.206Z,99.90
2019-02-28T21:10:33.567Z,99.90
2019-02-28T21:13:02.815Z,99.90
2019-02-28T21:15:32.119Z,99.90
2019-02-28T21:18:01.420Z,99.90
2019-02-28T21:20:30.602Z,99.90
2019-02-28T21:22:59.860Z,99.90
2019-02-28T21:25:29.317Z,99.90
2019-02-28T21:27:58.481Z,99.90
2019-02-28T21:30:27.896Z,99.90
2019-02-28T21:32:57.152Z,99.90
2019-02-28T21:35:26.656Z,99.90
2019-02-28T21:37:56.020Z,99.90
2019-02-28T21:40:25.476Z,99.90
2019-02-28T21:42:54.660Z,99.90
2019-02-28T21:45:23.935Z,99.90
2019-02-28T21:47:53.451Z,99.90
2019-02-28T21:50:22.599Z,99.90
2019-02-28T21:52:51.767Z,99.90
2019-02-28T21:55:20.929Z,99.90
2019-02-28T21:57:50.215Z,99.90
2019-02-28T22:00:21.517Z,99.90
2019-02-28T22:02:50.751Z,99.90
2019-02-28T22:05:19.927Z,99.90
2019-02-28T22:07:49.109Z,99.90
2019-02-28T22:10:18.395Z,99.90
2019-02-28T22:12:47.571Z,99.90
2019-02-28T22:15:17.809Z,99.90
2019-02-28T22:17:47.000Z,99.90
2019-02-28T22:20:16.450Z,99.90
2019-02-28T22:22:45.705Z,99.90
2019-02-28T22:25:15.038Z,99.90
2019-02-28T22:27:44.388Z,99.90
2019-02-28T22:30:50.076Z,99.90
2019-02-28T22:33:41.879Z,99.90
2019-02-28T22:36:13.321Z,99.90
2019-02-28T22:38:42.500Z,99.90
2019-02-28T22:41:11.803Z,99.90
2019-02-28T22:43:41.055Z,99.90
2019-02-28T22:46:10.279Z,99.90
2019-02-28T22:48:39.458Z,99.90
2019-02-28T22:51:08.706Z,99.90
2019-02-28T22:53:37.952Z,99.90
2019-02-28T22:56:07.183Z,99.90
2019-02-28T22:58:36.444Z,99.90
2019-02-28T23:01:12.158Z,99.90
2019-02-28T23:03:41.588Z,99.90
2019-02-28T23:06:10.743Z,99.90
2019-02-28T23:08:40.005Z,99.90
2019-02-28T23:11:09.242Z,99.90
2019-02-28T23:13:38.483Z,99.90
2019-02-28T23:16:07.729Z,99.90
2019-02-28T23:18:36.911Z,99.90
2019-02-28T23:21:06.140Z,99.90
2019-02-28T23:23:35.395Z,99.90
2019-02-28T23:26:13.138Z,99.90
2019-02-28T23:28:54.684Z,99.90
2019-02-28T23:32:10.080Z,99.90
2019-02-28T23:34:48.639Z,99.90
2019-02-28T23:37:17.810Z,99.90
2019-02-28T23:39:47.151Z,99.90
2019-02-28T23:42:16.462Z,99.90
2019-02-28T23:44:45.626Z,99.90
2019-02-28T23:47:14.762Z,99.90
2019-02-28T23:49:44.011Z,99.90
2019-02-28T23:52:13.172Z,99.90
2019-02-28T23:54:42.431Z,99.90
2019-02-28T23:57:11.596Z,99.90
2019-02-28T23:59:40.861Z,99.90
